Time;durP1;ratioP1;P1;durP2;ratioP2;P2;SDS_P1;SDS_P2;PMS_P1;PMS_P2;Temp;Humidity;BMP_temperature;BMP_pressure;BME280_temperature;BME280_humidity;BME280_pressure;Samples;Min_cycle;Max_cycle;Signal;HPM_P1;HPM_P2
2022/06/30 00:02:22;;;;;;;6.90;4.35;;;;;;;27.17;56.96;100572.56;5035392;28;20068;-74
2022/06/30 00:04:49;;;;;;;5.90;4.18;;;;;;;27.17;56.90;100572.56;5035323;28;20052;-75
2022/06/30 00:07:17;;;;;;;6.40;4.05;;;;;;;27.17;56.97;100570.69;5035553;28;20404;-75
2022/06/30 00:09:44;;;;;;;8.60;4.45;;;;;;;27.17;56.66;100572.56;5017131;28;20053;-75
2022/06/30 00:12:12;;;;;;;9.00;4.07;;;;;;;27.17;56.68;100578.00;5045624;28;20056;-74
2022/06/30 00:14:39;;;;;;;6.03;3.65;;;;;;;27.18;56.63;100574.25;5035914;28;20517;-75
2022/06/30 00:17:07;;;;;;;6.22;4.05;;;;;;;27.17;56.67;100576.13;5033861;28;20516;-75
2022/06/30 00:19:35;;;;;;;6.43;3.85;;;;;;;27.18;56.37;100580.50;5035356;28;20041;-74
2022/06/30 00:22:06;;;;;;;7.35;3.75;;;;;;;27.18;56.33;100582.41;5034877;28;20045;-75
2022/06/30 00:24:34;;;;;;;6.63;4.43;;;;;;;27.19;56.40;100578.66;5035030;28;20057;-75
2022/06/30 00:27:02;;;;;;;7.72;4.15;;;;;;;27.19;56.55;100578.66;5034946;28;20053;-75
2022/06/30 00:29:29;;;;;;;5.03;3.58;;;;;;;27.18;56.46;100575.09;5033714;28;20053;-75
2022/06/30 00:31:56;;;;;;;6.15;3.80;;;;;;;27.18;56.30;100577.81;5033443;28;20050;-75
2022/06/30 00:34:23;;;;;;;5.88;3.80;;;;;;;27.18;55.89;100585.94;5034906;28;20037;-75
2022/06/30 00:36:51;;;;;;;6.35;3.80;;;;;;;27.19;55.85;100581.38;5034611;28;20512;-75
2022/06/30 00:39:18;;;;;;;5.32;3.60;;;;;;;27.19;55.90;100584.09;5034469;28;20049;-75
2022/06/30 00:41:45;;;;;;;5.30;3.63;;;;;;;27.19;55.89;100574.06;5034764;28;20049;-75
2022/06/30 00:44:13;;;;;;;5.47;3.70;;;;;;;27.20;55.88;100581.19;5034532;28;20445;-75
2022/06/30 00:46:41;;;;;;;8.55;3.97;;;;;;;27.20;55.73;100577.63;5034262;28;20042;-75
2022/06/30 00:49:08;;;;;;;5.63;3.95;;;;;;;27.21;55.49;100579.31;5032917;28;20354;-75
2022/06/30 00:51:35;;;;;;;5.85;3.60;;;;;;;27.20;55.50;100580.34;5032926;28;20053;-75
2022/06/30 00:54:05;;;;;;;9.13;4.03;;;;;;;27.20;55.32;100583.91;5034340;28;20046;-75
2022/06/30 00:56:37;;;;;;;10.18;4.20;;;;;;;27.21;55.56;100587.47;5034424;28;20048;-75
2022/06/30 00:59:05;;;;;;;6.13;3.97;;;;;;;27.21;55.50;100587.47;5034600;28;20041;-75
2022/06/30 01:01:32;;;;;;;6.97;4.03;;;;;;;27.22;55.53;100586.41;5034223;28;20052;-75
2022/06/30 01:04:01;;;;;;;4.78;4.18;;;;;;;27.21;55.05;100593.72;5034555;28;20057;-75
2022/06/30 01:06:29;;;;;;;8.90;4.20;;;;;;;27.23;55.06;100590.84;5034836;28;20396;-76
2022/06/30 01:08:57;;;;;;;7.30;3.80;;;;;;;27.22;55.05;100594.56;5034102;28;20037;-75
2022/06/30 01:14:10;;;;;;;8.38;3.88;;;;;;;27.22;55.01;100589.97;5035886;28;20037;-75
2022/06/30 01:16:41;;;;;;;6.35;4.00;;;;;;;27.23;54.67;100593.56;5033817;28;20519;-75
2022/06/30 01:19:09;;;;;;;8.50;3.90;;;;;;;27.23;55.03;100596.28;5034127;28;20072;-75
2022/06/30 01:21:36;;;;;;;5.75;3.53;;;;;;;27.23;54.59;100593.56;5034093;28;20056;-75
2022/06/30 01:24:04;;;;;;;6.07;3.78;;;;;;;27.22;54.60;100595.41;5033778;28;20501;-75
2022/06/30 01:26:31;;;;;;;6.20;3.40;;;;;;;27.22;54.24;100600.00;5032165;28;20481;-76
2022/06/30 01:28:59;;;;;;;6.90;3.40;;;;;;;27.22;54.39;100598.13;5034409;28;20401;-76
2022/06/30 01:31:26;;;;;;;5.53;3.40;;;;;;;27.23;54.01;100599.00;5034094;28;20477;-75
2022/06/30 01:33:53;;;;;;;9.85;3.65;;;;;;;27.22;54.25;100598.13;5032500;28;20409;-76
2022/06/30 01:36:21;;;;;;;7.65;3.10;;;;;;;27.23;54.01;100610.72;5033753;28;20045;-76
2022/06/30 01:38:48;;;;;;;5.43;3.45;;;;;;;27.23;54.29;100609.88;5032131;28;20041;-76
2022/06/30 01:41:15;;;;;;;4.63;3.15;;;;;;;27.22;53.74;100606.28;5033154;28;20041;-76
2022/06/30 01:43:42;;;;;;;5.93;3.80;;;;;;;27.25;53.79;100621.38;5033632;28;20045;-75
2022/06/30 01:46:10;;;;;;;6.97;3.33;;;;;;;27.24;54.08;100617.81;5033481;28;20053;-75
2022/06/30 01:48:37;;;;;;;6.65;3.45;;;;;;;27.24;53.92;100617.81;5033354;28;20088;-75
2022/06/30 01:51:05;;;;;;;6.85;3.58;;;;;;;27.25;53.90;100618.66;5033218;28;20053;-76
2022/06/30 01:53:32;;;;;;;5.18;3.72;;;;;;;27.24;53.91;100617.81;5033663;28;20045;-76
2022/06/30 01:55:59;;;;;;;8.77;4.40;;;;;;;27.24;53.47;100615.09;5033244;28;20052;-75
2022/06/30 01:58:27;;;;;;;6.15;3.85;;;;;;;27.24;53.44;100617.81;5031714;28;20417;-75
2022/06/30 02:00:54;;;;;;;5.53;3.60;;;;;;;27.24;53.44;100612.38;5033544;28;20038;-75
2022/06/30 02:03:22;;;;;;;6.32;3.28;;;;;;;27.25;53.66;100615.94;5032107;28;20045;-75
2022/06/30 02:05:49;;;;;;;6.03;4.00;;;;;;;27.24;53.26;100614.25;5032865;28;20045;-75
2022/06/30 02:08:16;;;;;;;6.32;3.33;;;;;;;27.25;52.99;100618.66;5032075;28;20048;-75
2022/06/30 02:10:44;;;;;;;7.75;3.95;;;;;;;27.26;53.63;100612.19;5033223;28;20045;-75
2022/06/30 02:13:11;;;;;;;6.10;3.10;;;;;;;27.25;53.66;100616.78;5031655;28;20049;-74
2022/06/30 02:15:38;;;;;;;4.82;3.10;;;;;;;27.26;53.26;100617.63;5031631;28;20109;-74
2022/06/30 02:18:08;;;;;;;6.05;3.47;;;;;;;27.26;53.62;100618.47;5032938;28;20050;-74
2022/06/30 02:20:36;;;;;;;4.82;3.42;;;;;;;27.26;53.69;100617.63;5033308;28;20037;-74
2022/06/30 02:23:04;;;;;;;4.63;2.88;;;;;;;27.26;53.35;100614.91;5033399;28;20073;-75
2022/06/30 02:25:32;;;;;;;7.25;3.25;;;;;;;27.26;53.07;100621.19;5031528;28;20058;-74
2022/06/30 02:28:02;;;;;;;8.40;3.90;;;;;;;27.26;53.17;100612.19;5031228;28;20046;-75
2022/06/30 02:30:29;;;;;;;5.28;2.90;;;;;;;27.26;53.06;100614.91;5033083;28;20057;-75
2022/06/30 02:32:57;;;;;;;5.82;3.47;;;;;;;27.27;53.15;100611.19;5032549;28;20041;-75
2022/06/30 02:35:24;;;;;;;4.32;3.45;;;;;;;27.26;53.06;100615.75;5031444;28;20046;-75
2022/06/30 02:37:53;;;;;;;6.38;3.97;;;;;;;27.26;52.90;100618.47;5032865;28;20049;-75
2022/06/30 02:40:21;;;;;;;5.25;3.42;;;;;;;27.26;52.85;100614.91;5032862;28;20113;-75
2022/06/30 02:42:52;;;;;;;6.03;3.47;;;;;;;27.26;52.59;100617.63;5032946;28;20053;-75
2022/06/30 02:45:19;;;;;;;5.90;3.13;;;;;;;27.26;52.37;100618.47;5031998;28;20053;-75
2022/06/30 02:47:47;;;;;;;5.80;3.20;;;;;;;27.26;52.70;100625.78;5030844;28;20417;-75
2022/06/30 02:50:14;;;;;;;6.18;3.60;;;;;;;27.25;52.60;100627.66;5030747;28;20057;-75
2022/06/30 02:52:42;;;;;;;4.95;3.25;;;;;;;27.26;52.16;100628.50;5032796;28;20056;-76
2022/06/30 02:55:09;;;;;;;4.93;3.60;;;;;;;27.26;52.51;100632.03;5032227;28;20046;-75
2022/06/30 02:57:37;;;;;;;5.50;3.28;;;;;;;27.25;52.15;100630.38;5030602;28;20056;-75
2022/06/30 03:00:09;;;;;;;4.85;3.00;;;;;;;27.26;52.78;100634.75;5031502;28;20042;-77
2022/06/30 03:02:37;;;;;;;4.80;3.08;;;;;;;27.25;51.14;100632.25;5031652;28;20504;-76
2022/06/30 03:05:06;;;;;;;5.15;3.58;;;;;;;27.24;50.73;100628.69;5032655;28;20041;-76
2022/06/30 03:07:33;;;;;;;6.95;3.08;;;;;;;27.25;50.68;100634.97;5032921;28;20049;-76
2022/06/30 03:10:01;;;;;;;5.70;3.45;;;;;;;27.23;49.92;100639.75;5032191;28;20045;-76
2022/06/30 03:12:28;;;;;;;5.50;2.92;;;;;;;27.22;49.70;100640.78;5032236;28;20045;-76
2022/06/30 03:14:56;;;;;;;5.15;3.33;;;;;;;27.22;49.52;100648.94;5031835;28;20037;-76
2022/06/30 03:17:24;;;;;;;4.60;3.00;;;;;;;27.21;49.24;100641.81;5032166;28;20048;-77
2022/06/30 03:19:52;;;;;;;4.82;3.13;;;;;;;27.20;49.36;100640.97;5030947;28;20046;-76
2022/06/30 03:22:19;;;;;;;4.70;3.17;;;;;;;27.20;49.06;100634.69;5032216;28;20060;-76
2022/06/30 03:24:46;;;;;;;7.13;3.30;;;;;;;27.19;49.44;100642.00;5032180;28;20105;-77
2022/06/30 03:27:14;;;;;;;6.78;3.38;;;;;;;27.20;49.24;100640.13;5032251;28;20049;-77
2022/06/30 03:29:41;;;;;;;5.10;3.03;;;;;;;27.19;49.67;100638.47;5032195;28;20057;-77
2022/06/30 03:32:09;;;;;;;5.35;2.75;;;;;;;27.18;49.19;100639.47;5032278;28;20045;-76
2022/06/30 03:34:36;;;;;;;6.13;3.25;;;;;;;27.18;49.43;100643.03;5031291;28;20441;-77
2022/06/30 03:37:04;;;;;;;3.90;2.85;;;;;;;27.17;49.02;100641.34;5032132;28;20037;-77
2022/06/30 03:39:31;;;;;;;3.97;2.47;;;;;;;27.17;49.40;100638.63;5030721;28;20721;-76
2022/06/30 03:41:59;;;;;;;4.82;2.85;;;;;;;27.18;49.00;100642.19;5032490;28;20052;-77
2022/06/30 03:44:26;;;;;;;4.30;2.85;;;;;;;27.17;49.19;100635.06;5032162;28;20046;-76
2022/06/30 03:46:53;;;;;;;6.68;3.10;;;;;;;27.17;49.17;100640.50;5032397;28;20393;-77
2022/06/30 03:49:24;;;;;;;4.25;2.90;;;;;;;27.16;49.39;100638.81;5033154;28;20048;-76
2022/06/30 03:51:51;;;;;;;3.60;2.38;;;;;;;27.16;49.11;100627.97;5035795;28;20041;-76
2022/06/30 03:54:21;;;;;;;6.63;2.85;;;;;;;27.16;49.27;100639.66;5036118;28;20408;-76
2022/06/30 03:56:50;;;;;;;5.25;3.10;;;;;;;27.15;49.36;100634.44;5034606;28;20057;-76
2022/06/30 03:59:18;;;;;;;4.15;3.03;;;;;;;27.17;49.12;100640.50;5035372;28;20049;-76
2022/06/30 04:01:45;;;;;;;6.13;3.33;;;;;;;27.16;49.25;100639.66;5035213;28;20041;-76
2022/06/30 04:04:13;;;;;;;3.60;2.63;;;;;;;27.15;48.90;100643.41;5034530;28;20056;-76
2022/06/30 04:06:40;;;;;;;5.20;2.50;;;;;;;27.16;48.99;100641.53;5035247;28;20053;-76
2022/06/30 04:09:07;;;;;;;4.57;3.05;;;;;;;27.15;48.75;100639.88;5035160;28;20420;-76
2022/06/30 04:11:35;;;;;;;3.92;2.55;;;;;;;27.14;49.16;100640.88;5035460;28;20041;-75
2022/06/30 04:14:02;;;;;;;5.45;2.92;;;;;;;27.13;49.28;100647.34;5035188;28;20045;-76
2022/06/30 04:16:29;;;;;;;5.50;2.60;;;;;;;27.13;49.03;100640.03;5033453;28;20041;-76
2022/06/30 04:18:57;;;;;;;3.90;2.83;;;;;;;27.13;49.08;100655.50;5034023;28;20044;-76
2022/06/30 04:21:24;;;;;;;6.03;2.95;;;;;;;27.13;49.11;100655.50;5035638;28;20045;-76
2022/06/30 04:23:52;;;;;;;6.90;2.92;;;;;;;27.13;48.94;100656.34;5034914;28;20037;-76
2022/06/30 04:26:19;;;;;;;3.45;2.80;;;;;;;27.11;48.79;100659.25;5035042;28;20049;-76
2022/06/30 04:28:46;;;;;;;4.57;2.83;;;;;;;27.11;48.62;100659.25;5035137;28;20056;-76
2022/06/30 04:34:00;;;;;;;4.75;3.00;;;;;;;27.11;48.38;100661.97;5034853;28;20053;-76
2022/06/30 04:36:27;;;;;;;5.30;2.30;;;;;;;27.10;48.48;100663.00;5035121;28;20045;-76
2022/06/30 04:38:54;;;;;;;4.55;2.50;;;;;;;27.10;48.20;100663.00;5034574;28;20045;-76
2022/06/30 04:41:25;;;;;;;4.53;2.58;;;;;;;27.11;47.79;100656.53;5053929;28;20041;-76
2022/06/30 04:43:57;;;;;;;5.55;2.65;;;;;;;27.10;47.48;100660.28;5055051;28;20068;-76
2022/06/30 04:46:26;;;;;;;3.70;2.47;;;;;;;27.11;47.33;100658.41;5053921;28;20053;-76
2022/06/30 04:48:54;;;;;;;4.40;2.40;;;;;;;27.10;47.34;100657.56;5054410;28;20071;-76
2022/06/30 04:51:22;;;;;;;4.20;2.40;;;;;;;27.10;47.78;100657.56;5053002;28;20037;-76
2022/06/30 04:53:51;;;;;;;6.07;2.50;;;;;;;27.10;47.38;100651.28;5054573;28;20056;-76
2022/06/30 04:56:19;;;;;;;4.20;2.67;;;;;;;27.10;47.40;100648.56;5054130;28;20052;-76
2022/06/30 04:58:46;;;;;;;6.50;3.15;;;;;;;27.09;47.50;100650.41;5054138;28;20044;-76
2022/06/30 05:01:14;;;;;;;4.68;2.80;;;;;;;27.09;47.27;100650.41;5052908;28;20120;-76
2022/06/30 05:03:42;;;;;;;4.30;2.78;;;;;;;27.09;47.32;100650.41;5053572;28;20049;-76
2022/06/30 05:06:09;;;;;;;5.32;3.05;;;;;;;27.09;47.46;100661.28;5054013;28;20052;-76
2022/06/30 05:08:36;;;;;;;7.28;3.20;;;;;;;27.09;47.26;100660.44;5053886;28;20045;-76
2022/06/30 05:11:04;;;;;;;4.75;3.40;;;;;;;27.08;47.13;100659.59;5054376;28;20041;-75
2022/06/30 05:13:31;;;;;;;5.07;3.33;;;;;;;27.09;47.67;100650.41;5052970;28;20049;-77
2022/06/30 05:15:58;;;;;;;4.93;2.97;;;;;;;27.09;47.92;100653.13;5036378;28;20049;-77
2022/06/30 05:18:32;;;;;;;5.53;3.55;;;;;;;27.08;47.50;100659.59;5053246;28;20052;-77
2022/06/30 05:20:59;;;;;;;6.35;3.28;;;;;;;27.07;46.72;100671.50;5053851;28;20044;-77
2022/06/30 05:23:27;;;;;;;6.65;3.28;;;;;;;27.06;47.00;100674.38;5052353;28;20053;-76
2022/06/30 05:28:40;;;;;;;5.60;3.13;;;;;;;27.07;47.39;100670.66;5054098;28;20044;-77
2022/06/30 05:31:07;;;;;;;3.90;2.95;;;;;;;27.07;47.01;100678.81;5053494;28;20041;-76
2022/06/30 05:33:35;;;;;;;7.47;3.35;;;;;;;27.06;47.18;100686.13;5054892;28;20045;-76
2022/06/30 05:36:02;;;;;;;5.63;3.50;;;;;;;27.08;47.40;100677.78;5054765;28;20051;-76
2022/06/30 05:38:30;;;;;;;3.53;3.00;;;;;;;27.08;47.43;100688.63;5054580;28;20045;-76
2022/06/30 05:40:57;;;;;;;6.43;3.20;;;;;;;27.08;47.41;100692.19;5036719;28;20052;-76
2022/06/30 05:43:24;;;;;;;5.32;3.00;;;;;;;27.08;47.27;100692.19;5033759;28;20053;-75
2022/06/30 05:45:53;;;;;;;5.22;3.08;;;;;;;27.08;47.18;100697.63;5033702;28;20045;-75
2022/06/30 05:48:21;;;;;;;7.18;3.85;;;;;;;27.07;47.49;100693.22;5033780;28;20400;-74
2022/06/30 05:50:49;;;;;;;3.65;2.72;;;;;;;27.09;47.52;100698.47;5033123;28;20481;-75
2022/06/30 05:53:17;;;;;;;5.47;3.03;;;;;;;27.07;46.88;100698.66;5033483;28;20089;-75
2022/06/30 05:55:44;;;;;;;7.15;3.13;;;;;;;27.08;46.36;100696.78;5033739;28;20052;-76
2022/06/30 05:58:15;;;;;;;6.65;2.47;;;;;;;27.07;46.36;100698.66;5034111;28;20058;-76
2022/06/30 06:00:43;;;;;;;5.43;3.00;;;;;;;27.05;46.22;100695.28;5032520;28;20058;-76
2022/06/30 06:03:10;;;;;;;4.43;2.97;;;;;;;27.06;46.00;100701.56;5032598;28;20052;-76
2022/06/30 06:05:37;;;;;;;4.35;3.17;;;;;;;27.06;46.02;100698.84;5033924;28;20381;-76
2022/06/30 06:08:10;;;;;;;4.47;2.53;;;;;;;27.05;45.85;100702.59;5033543;28;20056;-75
2022/06/30 06:10:37;;;;;;;7.07;2.67;;;;;;;27.03;45.41;100700.06;5032514;28;20049;-76
2022/06/30 06:13:05;;;;;;;3.80;2.67;;;;;;;27.02;44.63;100695.69;5032447;28;20523;-76
2022/06/30 06:15:33;;;;;;;4.78;2.50;;;;;;;27.02;45.32;100703.81;5034442;28;20049;-76
2022/06/30 06:18:01;;;;;;;4.97;2.65;;;;;;;27.02;45.63;100705.66;5032860;28;20057;-76
2022/06/30 06:20:28;;;;;;;4.25;2.83;;;;;;;26.99;44.46;100687.88;5033982;28;20072;-76
2022/06/30 06:22:56;;;;;;;5.30;2.50;;;;;;;26.97;44.07;100698.09;5032798;28;20060;-76
2022/06/30 06:25:24;;;;;;;5.68;2.70;;;;;;;26.92;43.58;100700.53;5032754;28;20365;-75
2022/06/30 06:30:37;;;;;;;4.60;2.58;;;;;;;26.91;44.67;100707.00;5032267;28;20060;-76
2022/06/30 06:33:05;;;;;;;4.25;2.55;;;;;;;26.91;44.76;100707.00;5033733;28;20044;-76
2022/06/30 06:35:32;;;;;;;7.75;2.75;;;;;;;26.91;44.26;100717.00;5032502;28;20049;-75
2022/06/30 06:38:01;;;;;;;5.43;2.55;;;;;;;26.91;44.65;100711.59;5032680;28;20109;-75
2022/06/30 06:40:29;;;;;;;5.30;2.65;;;;;;;26.87;44.79;100720.09;5033250;28;20045;-76
2022/06/30 06:42:56;;;;;;;8.57;3.28;;;;;;;26.86;44.54;100725.72;5034337;28;20048;-77
2022/06/30 06:45:24;;;;;;;5.82;2.90;;;;;;;26.85;43.90;100730.28;5032855;28;20042;-77
2022/06/30 06:47:52;;;;;;;8.77;2.92;;;;;;;26.85;44.75;100732.16;5033351;28;20056;-75
2022/06/30 06:50:19;;;;;;;8.73;3.25;;;;;;;26.84;44.55;100728.59;5032585;28;20053;-75
2022/06/30 06:52:46;;;;;;;8.02;3.22;;;;;;;26.85;45.09;100724.00;5031715;28;20042;-74
2022/06/30 06:55:16;;;;;;;7.40;3.17;;;;;;;26.86;45.50;100718.41;5032962;28;20480;-75
2022/06/30 06:57:43;;;;;;;8.13;2.85;;;;;;;26.88;46.12;100718.22;5038134;28;20041;-75
2022/06/30 07:00:12;;;;;;;9.35;3.28;;;;;;;26.87;44.35;100725.53;5052837;28;20052;-75
2022/06/30 07:02:41;;;;;;;6.80;2.83;;;;;;;26.89;45.57;100730.75;5052792;28;20460;-77
2022/06/30 07:05:09;;;;;;;7.95;3.53;;;;;;;26.88;45.10;100719.06;5052772;28;20056;-76
2022/06/30 07:07:37;;;;;;;5.38;2.97;;;;;;;26.89;44.79;100719.91;5054077;28;20059;-78
2022/06/30 07:10:07;;;;;;;6.68;3.20;;;;;;;26.86;45.03;100723.84;5051987;28;20045;-77
2022/06/30 07:12:35;;;;;;;7.28;3.10;;;;;;;26.86;44.80;100731.16;5051786;28;20045;-82
2022/06/30 07:15:03;;;;;;;6.13;2.75;;;;;;;26.86;44.79;100736.59;5051157;28;20053;-75
2022/06/30 07:17:37;;;;;;;6.03;3.28;;;;;;;26.86;44.88;100736.59;5052574;28;20049;-74
2022/06/30 07:20:04;;;;;;;6.68;2.95;;;;;;;26.88;44.61;100737.22;5033799;28;20053;-74
2022/06/30 07:22:32;;;;;;;4.78;2.92;;;;;;;26.91;44.59;100733.31;5052080;28;20044;-74
2022/06/30 07:24:59;;;;;;;6.53;3.00;;;;;;;26.92;44.91;100729.56;5054766;28;20064;-76
2022/06/30 07:27:27;;;;;;;5.68;2.75;;;;;;;26.93;44.73;100720.38;5054618;28;20116;-75
2022/06/30 07:29:55;;;;;;;7.72;2.92;;;;;;;26.93;45.66;100723.94;5056258;28;20055;-76
2022/06/30 07:32:23;;;;;;;4.80;2.90;;;;;;;26.96;45.34;100728.16;5055918;28;20055;-75
2022/06/30 07:34:53;;;;;;;8.63;3.05;;;;;;;26.96;45.67;100720.00;5054540;28;20064;-75
2022/06/30 07:37:20;;;;;;;7.47;3.10;;;;;;;26.97;45.66;100717.09;5056334;28;20049;-76
2022/06/30 07:39:47;;;;;;;7.05;3.10;;;;;;;26.98;45.57;100721.53;5056295;28;20037;-77
2022/06/30 07:42:15;;;;;;;5.90;2.80;;;;;;;26.99;46.41;100709.63;5056420;28;20052;-75
2022/06/30 07:44:43;;;;;;;4.25;2.33;;;;;;;27.01;46.18;100721.13;5054785;28;20376;-75
2022/06/30 07:47:11;;;;;;;8.50;3.58;;;;;;;27.03;45.77;100720.97;5054529;28;20049;-76
2022/06/30 07:49:40;;;;;;;6.10;3.33;;;;;;;27.02;46.01;100709.25;5055713;28;20045;-75
2022/06/30 07:52:08;;;;;;;8.15;2.92;;;;;;;27.04;45.93;100715.34;5054688;28;20491;-75
2022/06/30 07:54:41;;;;;;;7.10;3.15;;;;;;;27.06;46.92;100707.00;5055837;28;20045;-75
2022/06/30 07:57:09;;;;;;;7.95;2.97;;;;;;;27.06;47.20;100704.28;5056245;28;20049;-77
2022/06/30 07:59:56;;;;;;;5.68;2.92;;;;;;;27.07;46.92;100701.38;5054747;28;20044;-76
2022/06/30 08:02:24;;;;;;;7.82;3.30;;;;;;;27.08;46.89;100700.34;5055440;28;20448;-76
2022/06/30 08:04:51;;;;;;;6.72;3.22;;;;;;;27.08;46.63;100699.50;5055035;28;20045;-75
2022/06/30 08:07:19;;;;;;;7.43;3.10;;;;;;;27.07;46.67;100695.94;5054574;28;20051;-74
2022/06/30 08:09:46;;;;;;;4.88;3.33;;;;;;;27.10;47.42;100695.63;5055048;28;20071;-74
2022/06/30 08:12:13;;;;;;;6.00;2.67;;;;;;;27.11;47.23;100704.63;5054843;28;20040;-75
2022/06/30 08:14:41;;;;;;;5.47;3.15;;;;;;;27.11;47.50;100702.72;5055457;28;20045;-78
2022/06/30 08:17:09;;;;;;;7.72;3.47;;;;;;;27.15;47.47;100705.09;5054289;28;20053;-78
2022/06/30 08:19:36;;;;;;;4.82;3.03;;;;;;;27.15;47.56;100694.22;5054589;28;20037;-74
2022/06/30 08:22:04;;;;;;;5.22;3.00;;;;;;;27.15;47.80;100689.63;5054305;28;20037;-76
2022/06/30 08:24:37;;;;;;;4.22;3.08;;;;;;;27.17;47.99;100694.84;5054686;28;20048;-78
2022/06/30 08:27:05;;;;;;;6.22;3.13;;;;;;;27.18;47.95;100696.53;5055139;28;20048;-80
2022/06/30 08:29:32;;;;;;;4.85;3.10;;;;;;;27.19;47.50;100698.25;5036917;28;20460;-75
2022/06/30 08:32:01;;;;;;;5.90;3.42;;;;;;;27.19;47.87;100687.38;5055133;28;20041;-75
2022/06/30 08:34:28;;;;;;;7.03;3.17;;;;;;;27.20;47.87;100689.06;5054285;28;20059;-77
2022/06/30 08:36:56;;;;;;;8.82;3.40;;;;;;;27.20;47.83;100678.19;5054605;28;20469;-76
2022/06/30 08:42:11;;;;;;;6.10;3.45;;;;;;;27.21;47.87;100683.41;5055049;28;20104;-75
2022/06/30 08:44:42;;;;;;;6.03;3.30;;;;;;;27.22;47.70;100685.09;5052911;28;20049;-76
2022/06/30 08:47:09;;;;;;;7.63;3.78;;;;;;;27.23;48.11;100677.81;5054588;28;20049;-77
2022/06/30 08:49:38;;;;;;;5.60;3.40;;;;;;;27.25;47.92;100686.59;5055020;28;20052;-77
2022/06/30 08:52:07;;;;;;;11.10;3.85;;;;;;;27.26;48.14;100688.28;5054629;28;20056;-78
2022/06/30 08:54:38;;;;;;;6.20;3.38;;;;;;;27.26;48.18;100686.41;5054250;28;20036;-77
2022/06/30 08:57:06;;;;;;;5.53;3.00;;;;;;;27.27;48.62;100690.84;5053435;28;20380;-76
2022/06/30 08:59:35;;;;;;;9.65;3.95;;;;;;;27.32;48.39;100693.00;5054927;28;20068;-76
2022/06/30 09:02:05;;;;;;;7.05;3.70;;;;;;;27.33;48.30;100695.50;5054250;28;20053;-78
2022/06/30 09:04:32;;;;;;;8.25;4.03;;;;;;;27.35;48.32;100687.19;5054487;28;20053;-78
2022/06/30 09:07:00;;;;;;;5.57;3.13;;;;;;;27.38;48.42;100691.38;5055057;28;20045;-77
2022/06/30 09:09:27;;;;;;;6.47;3.22;;;;;;;27.39;48.45;100695.78;5054690;28;20480;-77
2022/06/30 09:11:57;;;;;;;6.70;3.42;;;;;;;27.39;48.53;100683.06;5054069;28;20049;-78
2022/06/30 09:14:42;;;;;;;6.82;3.47;;;;;;;27.40;48.37;100687.44;5053812;28;20381;-75
2022/06/30 09:17:13;;;;;;;7.80;3.75;;;;;;;27.40;48.21;100692.88;5054572;28;20049;-76
2022/06/30 09:20:01;;;;;;;6.50;3.20;;;;;;;27.41;48.41;100685.56;5054827;28;20048;-77
2022/06/30 09:22:34;;;;;;;6.97;3.60;;;;;;;27.40;48.55;100690.16;5034444;28;20049;-77
2022/06/30 09:25:20;;;;;;;7.80;3.88;;;;;;;27.41;48.27;100691.00;5033221;28;20512;-76
2022/06/30 09:27:47;;;;;;;7.03;3.40;;;;;;;27.42;48.52;100681.81;5034304;28;20045;-77
2022/06/30 09:30:21;;;;;;;9.75;3.83;;;;;;;27.42;48.43;100679.94;5034194;28;20056;-76
2022/06/30 09:32:58;;;;;;;8.38;3.63;;;;;;;27.41;48.60;100686.41;5033119;28;20048;-75
2022/06/30 09:35:27;;;;;;;6.63;3.53;;;;;;;27.42;48.85;100682.66;5033682;28;20049;-74
2022/06/30 09:38:06;;;;;;;8.00;3.70;;;;;;;27.44;48.79;100685.19;5033981;28;20420;-76
2022/06/30 09:40:38;;;;;;;8.38;4.05;;;;;;;27.45;48.56;100687.72;5033779;28;20051;-74
2022/06/30 09:43:06;;;;;;;6.83;3.93;;;;;;;27.47;48.42;100685.66;5033535;28;20038;-75
2022/06/30 09:45:39;;;;;;;6.90;3.72;;;;;;;27.49;52.26;100685.47;5032380;28;20063;-76
2022/06/30 09:48:09;;;;;;;7.47;4.07;;;;;;;27.49;53.20;100688.19;5038661;28;20041;-76
2022/06/30 09:50:37;;;;;;;5.45;3.40;;;;;;;27.48;51.73;100683.78;5051126;28;20059;-76
2022/06/30 09:53:13;;;;;;;6.93;3.70;;;;;;;27.46;53.66;100686.69;5053212;28;20044;-75
2022/06/30 09:55:48;;;;;;;7.47;3.45;;;;;;;27.45;54.36;100685.00;5053778;28;20040;-75
2022/06/30 09:58:35;;;;;;;5.93;3.65;;;;;;;27.42;55.46;100682.66;5051999;28;20053;-77
2022/06/30 10:01:03;;;;;;;6.43;3.78;;;;;;;27.41;55.30;100694.56;5053964;28;20056;-75
2022/06/30 10:03:34;;;;;;;8.43;4.35;;;;;;;27.40;56.17;100679.28;5054550;28;20049;-76
2022/06/30 10:06:13;;;;;;;5.53;3.80;;;;;;;27.39;56.04;100680.34;5052603;28;20049;-76
2022/06/30 10:08:41;;;;;;;7.18;3.83;;;;;;;27.38;56.08;100680.50;5054630;28;20045;-75
2022/06/30 10:11:09;;;;;;;6.50;3.40;;;;;;;27.36;56.10;100683.44;5054490;28;20067;-75
2022/06/30 10:13:40;;;;;;;8.30;4.15;;;;;;;27.35;55.75;100679.88;5053364;28;20052;-76
2022/06/30 10:16:08;;;;;;;5.43;4.20;;;;;;;27.34;55.50;100680.03;5053667;28;20055;-75
2022/06/30 10:18:39;;;;;;;7.53;4.22;;;;;;;27.34;55.37;100674.59;5053734;28;20412;-76
2022/06/30 10:21:10;;;;;;;6.65;4.35;;;;;;;27.35;56.29;100676.31;5052190;28;20048;-76
2022/06/30 10:23:39;;;;;;;4.25;3.40;;;;;;;27.34;56.54;100671.88;5031905;28;20038;-75
2022/06/30 10:27:12;;;;;;;5.90;3.90;;;;;;;27.35;57.00;100677.16;5033484;28;20060;-75
2022/06/30 10:28:53;;;;;;;5.65;4.22;;;;;;;27.35;56.86;100665.44;5033708;28;20053;-77
2022/06/30 10:31:29;;;;;;;7.80;4.60;;;;;;;27.35;56.60;100670.88;5033806;28;20053;-78
2022/06/30 10:34:14;;;;;;;5.63;3.83;;;;;;;27.35;56.87;100673.59;5034327;28;20052;-77
2022/06/30 10:37:16;;;;;;;6.63;4.22;;;;;;;27.35;57.29;100665.44;5032762;28;20385;-75
2022/06/30 10:39:50;;;;;;;6.57;4.90;;;;;;;27.35;57.33;100665.44;5033573;28;20049;-75
2022/06/30 10:42:46;;;;;;;8.45;4.75;;;;;;;27.34;56.79;100661.84;5032763;28;20101;-74
2022/06/30 10:45:28;;;;;;;5.45;4.50;;;;;;;27.35;56.61;100665.44;5031607;28;20489;-75
2022/06/30 10:47:56;;;;;;;6.65;4.45;;;;;;;27.35;57.21;100657.28;5033376;28;20050;-77
2022/06/30 10:50:38;;;;;;;6.15;3.75;;;;;;;27.35;57.27;100662.72;5032726;28;20053;-75
2022/06/30 10:53:08;;;;;;;5.72;4.45;;;;;;;27.34;57.25;100661.84;5033317;28;20459;-76
2022/06/30 10:55:45;;;;;;;6.65;4.43;;;;;;;27.35;56.41;100660.84;5033690;28;20045;-76
2022/06/30 10:58:13;;;;;;;7.60;4.40;;;;;;;27.35;56.68;100660.00;5034499;28;20158;-77
2022/06/30 11:00:56;;;;;;;9.13;4.60;;;;;;;27.37;56.93;100660.63;5035879;28;20049;-75
2022/06/30 11:03:29;;;;;;;7.03;5.00;;;;;;;27.38;56.98;100666.91;5037097;28;20369;-78
2022/06/30 11:05:59;;;;;;;7.78;4.35;;;;;;;27.39;56.15;100655.88;5037583;28;20056;-76
2022/06/30 11:08:39;;;;;;;5.65;4.55;;;;;;;27.40;56.52;100649.38;5037548;28;20060;-76
2022/06/30 11:11:24;;;;;;;6.28;4.60;;;;;;;27.39;56.94;100653.16;5037563;28;20056;-77
2022/06/30 11:14:04;;;;;;;8.80;4.82;;;;;;;27.40;56.28;100654.84;5037754;28;20049;-75
2022/06/30 11:16:33;;;;;;;7.45;4.82;;;;;;;27.41;55.80;100655.66;5038057;28;20052;-77
2022/06/30 11:19:04;;;;;;;6.47;4.10;;;;;;;27.42;56.27;100651.91;5037551;28;20045;-76
2022/06/30 11:21:31;;;;;;;8.88;4.38;;;;;;;27.41;56.45;100651.06;5036294;28;20049;-77
2022/06/30 11:24:01;;;;;;;5.75;4.45;;;;;;;27.42;56.77;100649.19;5034419;28;20030;-73
2022/06/30 11:29:17;;;;;;;8.40;4.25;;;;;;;27.43;53.63;100640.88;5037462;28;20060;-76
2022/06/30 11:31:46;;;;;;;9.93;4.35;;;;;;;27.45;54.02;100643.38;5036937;28;20408;-76
2022/06/30 11:34:20;;;;;;;7.90;4.20;;;;;;;27.46;56.33;100640.47;5037122;28;20060;-77
2022/06/30 11:36:48;;;;;;;5.40;3.92;;;;;;;27.45;56.60;100643.38;5037635;28;20056;-77
2022/06/30 11:39:18;;;;;;;9.32;4.63;;;;;;;27.60;51.04;100636.88;5037865;28;20049;-79
2022/06/30 11:44:25;;;;;;;8.77;4.78;;;;;;;27.64;54.41;100641.94;5035630;28;20849;-75
2022/06/30 11:46:52;;;;;;;6.65;4.72;;;;;;;27.63;54.88;100634.78;5035227;28;20049;-75
2022/06/30 11:49:22;;;;;;;7.60;4.65;;;;;;;27.63;55.90;100632.06;5034850;28;20049;-75
2022/06/30 11:51:51;;;;;;;5.78;4.35;;;;;;;27.60;52.96;100631.44;5035073;28;20527;-75
2022/06/30 11:54:22;;;;;;;8.90;5.00;;;;;;;27.61;53.37;100635.84;5036156;28;20041;-76